Time;durP1;ratioP1;P1;durP2;ratioP2;P2;SDS_P1;SDS_P2;PMS_P1;PMS_P2;Temp;Humidity;BMP_temperature;BMP_pressure;BME280_temperature;BME280_humidity;BME280_pressure;Samples;Min_cycle;Max_cycle;Signal;HPM_P1;HPM_P2
2023/03/11 00:00:26;;;;;;;;;;;;;;;12.66;78.33;97867.16;5091300;28;19951;-38
2023/03/11 00:02:52;;;;;;;;;;;;;;;12.58;78.32;97878.31;5090608;28;19920;-38
2023/03/11 00:05:22;;;;;;;;;;;;;;;12.32;79.57;97861.44;5091071;28;19916;-38
2023/03/11 00:07:48;;;;;;;;;;;;;;;12.51;79.39;97867.13;5091048;28;19916;-37
2023/03/11 00:10:18;;;;;;;;;;;;;;;12.58;78.32;97864.19;5091118;28;20076;-38
2023/03/11 00:12:44;;;;;;;;;;;;;;;12.64;77.55;97857.81;5090931;28;19912;-38
2023/03/11 00:15:09;;;;;;;;;;;;;;;12.74;77.90;97868.53;5091034;28;19922;-38
2023/03/11 00:17:34;;;;;;;;;;;;;;;12.64;77.72;97863.13;5091217;28;19935;-38
2023/03/11 00:20:00;;;;;;;;;;;;;;;12.65;77.47;97832.72;5093720;28;19912;-38
2023/03/11 00:22:25;;;;;;;;;;;;;;;12.69;77.55;97828.47;5095379;28;20006;-38
2023/03/11 00:24:50;;;;;;;;;;;;;;;12.76;77.12;97830.91;5095042;28;20007;-37
2023/03/11 00:27:16;;;;;;;;;;;;;;;12.80;77.18;97827.44;5094907;28;19912;-37
2023/03/11 00:29:41;;;;;;;;;;;;;;;12.68;78.11;97835.69;5094910;28;19919;-38
2023/03/11 00:32:06;;;;;;;;;;;;;;;12.70;77.48;97814.88;5094937;28;20010;-38
2023/03/11 00:34:31;;;;;;;;;;;;;;;12.68;77.79;97811.66;5094869;28;19916;-37
2023/03/11 00:36:57;;;;;;;;;;;;;;;12.77;77.16;97795.13;5094800;28;19923;-38
2023/03/11 00:39:22;;;;;;;;;;;;;;;12.91;76.63;97794.34;5094401;28;20379;-37
2023/03/11 00:41:47;;;;;;;;;;;;;;;12.67;76.74;97793.25;5094419;28;19923;-38
2023/03/11 00:44:13;;;;;;;;;;;;;;;12.40;78.48;97785.44;5094518;28;19912;-38
2023/03/11 00:46:38;;;;;;;;;;;;;;;12.72;77.23;97777.25;5094951;28;19912;-38
2023/03/11 00:49:03;;;;;;;;;;;;;;;12.67;77.23;97769.22;5094580;28;19912;-38
2023/03/11 00:51:28;;;;;;;;;;;;;;;12.68;76.75;97760.97;5094591;28;19998;-36
2023/03/11 00:53:54;;;;;;;;;;;;;;;12.67;77.06;97763.88;5094235;28;19923;-37
2023/03/11 00:56:19;;;;;;;;;;;;;;;12.21;78.71;97758.47;5094753;28;19912;-36
2023/03/11 00:58:44;;;;;;;;;;;;;;;12.19;79.84;97761.38;5094246;28;19920;-37
2023/03/11 01:01:12;;;;;;;;;;;;;;;12.52;78.09;97770.00;5094374;28;20401;-37
2023/03/11 01:03:38;;;;;;;;;;;;;;;12.08;79.95;97765.06;5094143;28;19981;-37
2023/03/11 01:06:04;;;;;;;;;;;;;;;12.36;78.82;97755.84;5093570;28;19915;-37
2023/03/11 01:08:30;;;;;;;;;;;;;;;12.42;77.47;97740.63;5093751;28;19923;-37
2023/03/11 01:10:56;;;;;;;;;;;;;;;12.26;78.90;97737.94;5093982;28;19912;-37
2023/03/11 01:13:21;;;;;;;;;;;;;;;12.08;79.78;97730.41;5094065;28;19916;-37
2023/03/11 01:15:46;;;;;;;;;;;;;;;12.00;80.76;97742.38;5094215;28;20002;-37
2023/03/11 01:18:12;;;;;;;;;;;;;;;11.96;80.44;97735.19;5094239;28;19919;-37
2023/03/11 01:20:38;;;;;;;;;;;;;;;11.97;80.97;97734.91;5094270;28;19912;-37
2023/03/11 01:23:03;;;;;;;;;;;;;;;11.63;82.84;97710.47;5094247;28;20080;-37
2023/03/11 01:25:29;;;;;;;;;;;;;;;11.65;84.54;97703.84;5094066;28;20001;-37
2023/03/11 01:27:54;;;;;;;;;;;;;;;12.01;82.67;97713.84;5094059;28;19912;-37
2023/03/11 01:30:21;;;;;;;;;;;;;;;12.14;81.49;97721.38;5093366;28;19942;-37
2023/03/11 01:32:47;;;;;;;;;;;;;;;12.24;82.29;97704.59;5093734;28;19912;-37
2023/03/11 01:35:14;;;;;;;;;;;;;;;12.18;82.23;97709.09;5093815;28;19916;-37
2023/03/11 01:37:39;;;;;;;;;;;;;;;12.41;81.01;97718.47;5093729;28;20278;-37
2023/03/11 01:40:05;;;;;;;;;;;;;;;12.39;80.74;97709.16;5093499;28;19998;-37
2023/03/11 01:42:30;;;;;;;;;;;;;;;12.40;81.22;97724.09;5093454;28;19912;-37
2023/03/11 01:44:55;;;;;;;;;;;;;;;12.37;80.59;97733.41;5093869;28;19954;-37
2023/03/11 01:47:33;;;;;;;;;;;;;;;12.14;82.20;97724.03;5093622;28;19912;-37
2023/03/11 01:49:59;;;;;;;;;;;;;;;12.10;82.52;97714.97;5093582;28;19912;-37
2023/03/11 01:52:24;;;;;;;;;;;;;;;12.31;81.68;97689.94;5093641;28;20104;-37
2023/03/11 01:54:50;;;;;;;;;;;;;;;12.70;80.22;97702.78;5093343;28;20430;-37
2023/03/11 01:57:15;;;;;;;;;;;;;;;12.56;80.70;97711.56;5093410;28;19985;-37
2023/03/11 01:59:43;;;;;;;;;;;;;;;12.04;82.76;97695.47;5093097;28;19912;-37
2023/03/11 02:02:12;;;;;;;;;;;;;;;12.37;82.27;97703.28;5093285;28;19912;-38
2023/03/11 02:04:39;;;;;;;;;;;;;;;12.30;82.12;97688.34;5093282;28;19923;-37
2023/03/11 02:07:06;;;;;;;;;;;;;;;12.47;81.48;97684.59;5093362;28;19912;-38
2023/03/11 02:09:31;;;;;;;;;;;;;;;12.59;80.11;97668.38;5093374;28;19912;-38
2023/03/11 02:11:57;;;;;;;;;;;;;;;12.55;80.56;97664.63;5092800;28;19973;-37
2023/03/11 02:14:23;;;;;;;;;;;;;;;12.63;80.08;97672.09;5092772;28;19923;-38
2023/03/11 02:16:48;;;;;;;;;;;;;;;12.75;80.34;97666.47;5093061;28;19991;-37
2023/03/11 02:19:19;;;;;;;;;;;;;;;12.60;79.99;97684.09;5092970;28;20427;-37
2023/03/11 02:21:45;;;;;;;;;;;;;;;12.51;80.93;97699.03;5092965;28;19951;-37
2023/03/11 02:24:21;;;;;;;;;;;;;;;12.52;81.15;97716.63;5092534;28;19979;-37
2023/03/11 02:26:46;;;;;;;;;;;;;;;12.57;81.34;97739.88;5093073;28;19930;-37
2023/03/11 02:29:12;;;;;;;;;;;;;;;12.05;83.04;97750.41;5093221;28;20016;-37
2023/03/11 02:31:39;;;;;;;;;;;;;;;12.12;83.21;97761.63;5092576;28;20386;-37
2023/03/11 02:34:06;;;;;;;;;;;;;;;11.99;83.64;97769.31;5092779;28;19947;-37
2023/03/11 02:36:37;;;;;;;;;;;;;;;11.76;84.44;97763.31;5092761;28;19916;-37
2023/03/11 02:39:02;;;;;;;;;;;;;;;11.13;87.45;97771.97;5092458;28;19919;-37
2023/03/11 02:41:29;;;;;;;;;;;;;;;11.38;86.13;97785.72;5092530;28;19916;-37
2023/03/11 02:43:54;;;;;;;;;;;;;;;11.64;84.96;97776.84;5091144;28;19951;-37
2023/03/11 02:46:20;;;;;;;;;;;;;;;11.70;83.48;97767.81;5092640;28;20359;-37
2023/03/11 02:48:46;;;;;;;;;;;;;;;11.71;83.74;97763.28;5092633;28;19912;-37
2023/03/11 02:51:11;;;;;;;;;;;;;;;11.63;84.86;97761.94;5092636;28;20021;-37
2023/03/11 02:53:48;;;;;;;;;;;;;;;11.90;83.20;97764.47;5092367;28;19957;-38
2023/03/11 02:56:13;;;;;;;;;;;;;;;11.67;83.15;97762.19;5092198;28;19916;-37
2023/03/11 02:58:39;;;;;;;;;;;;;;;11.84;83.26;97743.34;5092513;28;19913;-37
2023/03/11 03:01:04;;;;;;;;;;;;;;;11.78;83.72;97731.88;5092544;28;19918;-36
2023/03/11 03:03:29;;;;;;;;;;;;;;;12.07;82.27;97721.63;5092211;28;19908;-37
2023/03/11 03:05:55;;;;;;;;;;;;;;;12.02;81.38;97700.28;5091714;28;19912;-37
2023/03/11 03:08:20;;;;;;;;;;;;;;;12.01;81.64;97693.31;5091604;28;19939;-37
2023/03/11 03:10:46;;;;;;;;;;;;;;;11.98;81.74;97680.53;5091908;28;19960;-37
2023/03/11 03:13:11;;;;;;;;;;;;;;;11.74;82.93;97662.31;5091999;28;19981;-37
2023/03/11 03:15:36;;;;;;;;;;;;;;;11.89;83.09;97663.41;5091578;28;20423;-37
2023/03/11 03:18:02;;;;;;;;;;;;;;;11.83;82.54;97661.81;5091611;28;19919;-36
2023/03/11 03:20:27;;;;;;;;;;;;;;;11.94;83.05;97655.47;5091800;28;19916;-36
2023/03/11 03:22:53;;;;;;;;;;;;;;;12.01;81.83;97645.34;5091798;28;19920;-36
2023/03/11 03:25:18;;;;;;;;;;;;;;;12.05;81.48;97648.28;5091680;28;19920;-37
2023/03/11 03:27:44;;;;;;;;;;;;;;;12.14;81.65;97652.03;5091683;28;19999;-37
2023/03/11 03:30:10;;;;;;;;;;;;;;;11.90;82.68;97651.75;5091655;28;20421;-37
2023/03/11 03:32:35;;;;;;;;;;;;;;;12.05;81.36;97659.78;5091769;28;19912;-37
2023/03/11 03:35:00;;;;;;;;;;;;;;;12.02;82.07;97654.97;5091748;28;19974;-37
2023/03/11 03:37:26;;;;;;;;;;;;;;;11.98;82.50;97653.88;5091778;28;20341;-37
2023/03/11 03:39:51;;;;;;;;;;;;;;;11.79;82.38;97660.75;5091678;28;19912;-36
2023/03/11 03:42:17;;;;;;;;;;;;;;;12.04;82.29;97662.69;5091622;28;19953;-36
2023/03/11 03:44:42;;;;;;;;;;;;;;;12.18;81.35;97662.97;5091825;28;19912;-37
2023/03/11 03:47:07;;;;;;;;;;;;;;;11.86;83.00;97653.28;5091379;28;19915;-36
2023/03/11 03:49:33;;;;;;;;;;;;;;;11.93;82.41;97654.66;5091511;28;19912;-36
2023/03/11 03:51:58;;;;;;;;;;;;;;;11.97;81.42;97657.59;5091482;28;19935;-36
2023/03/11 03:54:23;;;;;;;;;;;;;;;12.14;81.01;97660.03;5092612;28;19948;-37
2023/03/11 03:56:48;;;;;;;;;;;;;;;12.41;79.70;97675.81;5096013;28;20386;-37
2023/03/11 03:59:14;;;;;;;;;;;;;;;12.38;79.17;97678.22;5095739;28;19916;-37
2023/03/11 04:01:39;;;;;;;;;;;;;;;12.44;79.02;97693.94;5095210;28;20002;-36
2023/03/11 04:04:04;;;;;;;;;;;;;;;12.12;80.37;97704.81;5095875;28;19915;-37
2023/03/11 04:06:29;;;;;;;;;;;;;;;12.00;81.07;97715.72;5095563;28;19912;-38
2023/03/11 04:08:55;;;;;;;;;;;;;;;12.02;80.77;97729.59;5095615;28;20439;-37
2023/03/11 04:11:20;;;;;;;;;;;;;;;12.31;79.49;97737.94;5095505;28;19920;-37
2023/03/11 04:13:46;;;;;;;;;;;;;;;12.09;80.33;97753.34;5095302;28;19916;-37
2023/03/11 04:16:14;;;;;;;;;;;;;;;12.08;80.74;97757.88;5095242;28;19912;-37
2023/03/11 04:18:40;;;;;;;;;;;;;;;12.25;80.16;97749.66;5095160;28;20444;-37
2023/03/11 04:21:05;;;;;;;;;;;;;;;12.27;79.85;97754.72;5095296;28;20006;-37
2023/03/11 04:23:31;;;;;;;;;;;;;;;12.39;78.91;97760.63;5095132;28;19971;-38
2023/03/11 04:25:56;;;;;;;;;;;;;;;12.00;81.29;97763.72;5095136;28;19954;-37
2023/03/11 04:28:21;;;;;;;;;;;;;;;12.15;80.24;97770.97;5095101;28;20024;-36
2023/03/11 04:30:46;;;;;;;;;;;;;;;12.23;80.24;97772.31;5095174;28;20291;-36
2023/03/11 04:33:12;;;;;;;;;;;;;;;12.20;80.00;97778.19;5095264;28;19912;-36
2023/03/11 04:35:38;;;;;;;;;;;;;;;12.12;80.29;97782.94;5095025;28;20317;-36
2023/03/11 04:38:03;;;;;;;;;;;;;;;11.99;80.18;97794.09;5095336;28;19919;-36
2023/03/11 04:40:28;;;;;;;;;;;;;;;11.82;81.13;97793.44;5094909;28;19943;-36
2023/03/11 04:42:54;;;;;;;;;;;;;;;11.90;81.02;97787.66;5095057;28;19919;-37
2023/03/11 04:45:19;;;;;;;;;;;;;;;11.96;81.11;97793.81;5095108;28;20007;-38
2023/03/11 04:47:48;;;;;;;;;;;;;;;12.04;80.39;97788.78;5094654;28;19919;-37
2023/03/11 04:50:13;;;;;;;;;;;;;;;11.97;80.93;97787.41;5094811;28;19912;-36
2023/03/11 04:52:39;;;;;;;;;;;;;;;12.06;80.34;97791.19;5094873;28;19923;-36
2023/03/11 04:55:04;;;;;;;;;;;;;;;12.16;79.66;97798.44;5094626;28;19920;-36
2023/03/11 04:57:30;;;;;;;;;;;;;;;11.90;80.37;97795.66;5094816;28;19998;-36
2023/03/11 04:59:55;;;;;;;;;;;;;;;11.99;80.21;97788.75;5094634;28;19930;-36
2023/03/11 05:02:20;;;;;;;;;;;;;;;12.26;78.70;97782.44;5094487;28;19916;-36
2023/03/11 05:04:45;;;;;;;;;;;;;;;12.37;77.88;97784.09;5094095;28;20075;-36
2023/03/11 05:07:11;;;;;;;;;;;;;;;12.23;78.45;97791.78;5093756;28;19920;-35
2023/03/11 05:09:36;;;;;;;;;;;;;;;12.21;78.82;97785.13;5094401;28;20011;-37
2023/03/11 05:12:01;;;;;;;;;;;;;;;12.16;78.95;97790.44;5094260;28;19927;-35
2023/03/11 05:14:27;;;;;;;;;;;;;;;12.18;79.33;97796.31;5094126;28;19917;-36
2023/03/11 05:16:52;;;;;;;;;;;;;;;12.15;78.78;97807.47;5094121;28;19912;-37
2023/03/11 05:19:29;;;;;;;;;;;;;;;12.34;77.74;97808.63;5094061;28;19916;-36
2023/03/11 05:21:55;;;;;;;;;;;;;;;12.25;78.41;97791.53;5094467;28;19951;-36
2023/03/11 05:24:20;;;;;;;;;;;;;;;12.43;77.23;97788.41;5093816;28;19960;-36
2023/03/11 05:26:45;;;;;;;;;;;;;;;12.45;76.85;97796.13;5096569;28;19916;-37
2023/03/11 05:29:11;;;;;;;;;;;;;;;12.43;76.84;97791.06;5096798;28;19912;-36
2023/03/11 05:31:36;;;;;;;;;;;;;;;12.51;76.44;97792.41;5093745;28;20002;-36
2023/03/11 05:34:01;;;;;;;;;;;;;;;12.57;76.77;97788.69;5093830;28;19923;-36
2023/03/11 05:36:26;;;;;;;;;;;;;;;12.84;75.12;97787.66;5093880;28;19913;-36
2023/03/11 05:38:52;;;;;;;;;;;;;;;12.88;74.23;97797.53;5093776;28;19945;-36
2023/03/11 05:41:17;;;;;;;;;;;;;;;12.95;74.28;97783.94;5093383;28;20282;-37
2023/03/11 05:43:43;;;;;;;;;;;;;;;12.97;74.14;97797.81;5087942;28;19955;-37
2023/03/11 05:46:09;;;;;;;;;;;;;;;12.89;74.48;97785.78;5093444;28;20006;-37
2023/03/11 05:48:35;;;;;;;;;;;;;;;13.01;73.94;97790.06;5091173;28;19916;-37
2023/03/11 05:51:00;;;;;;;;;;;;;;;13.33;72.76;97783.66;5093526;28;19919;-36
2023/03/11 05:53:25;;;;;;;;;;;;;;;13.46;72.14;97780.44;5080023;28;19912;-37
2023/03/11 05:56:00;;;;;;;;;;;;;;;13.26;72.87;97781.25;5092634;28;20378;-36
2023/03/11 05:58:26;;;;;;;;;;;;;;;13.08;73.51;97782.59;5083033;28;20002;-37
2023/03/11 06:00:52;;;;;;;;;;;;;;;13.29;72.73;97781.53;5093195;28;20257;-36
2023/03/11 06:03:17;;;;;;;;;;;;;;;13.65;71.27;97776.16;5093325;28;20409;-37
2023/03/11 06:05:43;;;;;;;;;;;;;;;13.65;70.78;97769.97;5092951;28;19912;-36
2023/03/11 06:08:08;;;;;;;;;;;;;;;13.65;70.55;97770.81;5092718;28;20015;-37
2023/03/11 06:10:34;;;;;;;;;;;;;;;13.78;70.52;97774.75;5092480;28;19912;-36
2023/03/11 06:12:59;;;;;;;;;;;;;;;14.01;69.48;97757.31;5092656;28;20002;-37
2023/03/11 06:15:24;;;;;;;;;;;;;;;14.33;68.10;97761.44;5092189;28;19928;-37
2023/03/11 06:17:49;;;;;;;;;;;;;;;14.68;67.26;97754.31;5091670;28;19911;-37
2023/03/11 06:20:15;;;;;;;;;;;;;;;14.85;66.80;97752.03;5091704;28;19916;-37
2023/03/11 06:22:40;;;;;;;;;;;;;;;14.93;65.86;97745.28;5091404;28;20311;-37
2023/03/11 06:25:06;;;;;;;;;;;;;;;15.08;65.83;97746.22;5091674;28;19974;-37
2023/03/11 06:27:31;;;;;;;;;;;;;;;15.19;64.36;97745.88;5091737;28;19912;-36
2023/03/11 06:29:57;;;;;;;;;;;;;;;15.06;65.24;97741.16;5091362;28;19961;-36
2023/03/11 06:32:22;;;;;;;;;;;;;;;15.10;64.57;97744.88;5091615;28;20082;-37
2023/03/11 06:34:51;;;;;;;;;;;;;;;14.96;65.26;97738.56;5091126;28;19924;-36
2023/03/11 06:37:16;;;;;;;;;;;;;;;14.88;65.17;97742.63;5091546;28;19912;-37
2023/03/11 06:39:42;;;;;;;;;;;;;;;14.89;64.74;97740.75;5091180;28;20038;-37
2023/03/11 06:42:09;;;;;;;;;;;;;;;15.09;64.80;97743.25;5091645;28;19916;-37
2023/03/11 06:44:34;;;;;;;;;;;;;;;14.72;66.06;97750.00;5091502;28;20360;-36
2023/03/11 06:47:01;;;;;;;;;;;;;;;14.78;66.00;97745.41;5091635;28;19922;-36
2023/03/11 06:49:26;;;;;;;;;;;;;;;15.02;64.34;97750.81;5091174;28;19916;-36
2023/03/11 06:51:51;;;;;;;;;;;;;;;15.49;63.87;97754.69;5091201;28;20061;-37
2023/03/11 06:54:16;;;;;;;;;;;;;;;15.55;62.99;97740.13;5091110;28;20265;-36
2023/03/11 06:56:42;;;;;;;;;;;;;;;15.56;61.83;97736.38;5091197;28;20018;-36
2023/03/11 06:59:07;;;;;;;;;;;;;;;15.44;62.57;97739.47;5091349;28;19912;-36
2023/03/11 07:01:32;;;;;;;;;;;;;;;15.59;61.20;97738.50;5091059;28;19920;-37
2023/03/11 07:03:57;;;;;;;;;;;;;;;15.43;61.13;97734.38;5090884;28;19927;-38
2023/03/11 07:06:24;;;;;;;;;;;;;;;15.54;60.25;97741.22;5089487;28;19934;-37
2023/03/11 07:08:50;;;;;;;;;;;;;;;15.43;60.59;97742.41;5090430;28;20386;-43
2023/03/11 07:11:19;;;;;;;;;;;;;;;15.13;61.01;97738.16;5090045;28;20014;-44
2023/03/11 07:13:44;;;;;;;;;;;;;;;15.11;60.65;97725.03;5090020;28;20401;-43
2023/03/11 07:16:11;;;;;;;;;;;;;;;15.12;60.67;97737.34;5090349;28;19912;-44
2023/03/11 07:18:37;;;;;;;;;;;;;;;15.43;59.51;97745.88;5090468;28;19912;-44
2023/03/11 07:21:03;;;;;;;;;;;;;;;15.46;59.46;97736.50;5090521;28;19912;-42
2023/03/11 07:23:29;;;;;;;;;;;;;;;15.72;58.87;97742.38;5090564;28;19928;-42
2023/03/11 07:25:54;;;;;;;;;;;;;;;16.25;57.81;97738.00;5090890;28;19918;-43
2023/03/11 07:28:20;;;;;;;;;;;;;;;16.54;56.92;97738.66;5089860;28;20003;-45
2023/03/11 07:30:47;;;;;;;;;;;;;;;16.61;54.76;97735.59;5090231;28;19977;-43
2023/03/11 07:33:13;;;;;;;;;;;;;;;16.67;54.89;97730.97;5090432;28;19919;-43
2023/03/11 07:35:38;;;;;;;;;;;;;;;17.35;53.56;97730.38;5090483;28;20011;-42
2023/03/11 07:38:03;;;;;;;;;;;;;;;17.64;52.28;97734.69;5090420;28;19917;-42
2023/03/11 07:40:29;;;;;;;;;;;;;;;17.98;51.24;97737.00;5090646;28;20299;-42
2023/03/11 07:42:54;;;;;;;;;;;;;;;18.03;50.78;97732.59;5090759;28;20371;-43
2023/03/11 07:45:19;;;;;;;;;;;;;;;17.85;51.27;97734.34;5090120;28;19912;-45
2023/03/11 07:47:44;;;;;;;;;;;;;;;17.91;50.70;97738.50;5090087;28;19916;-43
2023/03/11 07:50:10;;;;;;;;;;;;;;;17.92;50.88;97732.03;5090011;28;20012;-43
2023/03/11 07:52:35;;;;;;;;;;;;;;;17.80;50.96;97740.59;5090345;28;19912;-43
2023/03/11 07:55:00;;;;;;;;;;;;;;;18.00;51.01;97742.09;5090655;28;19917;-42
2023/03/11 07:57:26;;;;;;;;;;;;;;;17.94;51.44;97741.41;5090201;28;19966;-42
2023/03/11 07:59:51;;;;;;;;;;;;;;;18.11;50.85;97735.41;5089873;28;19916;-43
2023/03/11 08:02:16;;;;;;;;;;;;;;;18.37;50.28;97726.75;5090355;28;19918;-43
2023/03/11 08:04:42;;;;;;;;;;;;;;;18.39;49.82;97729.97;5090305;28;20296;-42
2023/03/11 08:07:07;;;;;;;;;;;;;;;18.29;50.44;97730.97;5090530;28;19912;-42
2023/03/11 08:09:35;;;;;;;;;;;;;;;18.65;49.25;97726.69;5090320;28;20481;-42
2023/03/11 08:12:01;;;;;;;;;;;;;;;18.33;48.70;97726.59;5090367;28;19912;-42
2023/03/11 08:14:26;;;;;;;;;;;;;;;19.07;46.71;97713.84;5090556;28;19973;-42
2023/03/11 08:16:51;;;;;;;;;;;;;;;19.17;45.25;97712.78;5090583;28;20307;-41
2023/03/11 08:19:17;;;;;;;;;;;;;;;18.95;45.69;97720.59;5090235;28;19912;-41
2023/03/11 08:21:42;;;;;;;;;;;;;;;19.03;44.89;97712.88;5090133;28;19916;-42
2023/03/11 08:24:09;;;;;;;;;;;;;;;18.70;45.29;97715.81;5090014;28;20399;-41
2023/03/11 08:26:34;;;;;;;;;;;;;;;17.86;47.48;97709.81;5090505;28;20616;-42
2023/03/11 08:29:00;;;;;;;;;;;;;;;17.85;47.90;97718.97;5090216;28;19912;-42
2023/03/11 08:31:27;;;;;;;;;;;;;;;18.62;49.16;97719.19;5090430;28;19912;-41
2023/03/11 08:33:55;;;;;;;;;;;;;;;18.74;46.81;97717.56;5090560;28;19939;-42
2023/03/11 08:36:20;;;;;;;;;;;;;;;18.60;46.58;97718.72;5090444;28;19912;-42
2023/03/11 08:38:46;;;;;;;;;;;;;;;18.83;46.28;97722.25;5090447;28;19935;-42
2023/03/11 08:41:11;;;;;;;;;;;;;;;18.39;47.24;97716.50;5092534;28;19912;-42
2023/03/11 08:43:37;;;;;;;;;;;;;;;18.32;47.66;97721.50;5093825;28;19912;-41
2023/03/11 08:46:05;;;;;;;;;;;;;;;18.06;48.16;97707.81;5093655;28;20236;-41
2023/03/11 08:48:31;;;;;;;;;;;;;;;17.97;48.17;97710.38;5093918;28;19957;-42
2023/03/11 08:50:56;;;;;;;;;;;;;;;18.21;47.57;97712.84;5093696;28;19912;-42
2023/03/11 08:53:21;;;;;;;;;;;;;;;18.24;47.20;97716.81;5093432;28;19916;-42
2023/03/11 08:55:47;;;;;;;;;;;;;;;18.09;46.59;97705.31;5093960;28;19917;-42
2023/03/11 08:58:13;;;;;;;;;;;;;;;17.82;47.21;97714.19;5094015;28;20386;-42
2023/03/11 09:00:38;;;;;;;;;;;;;;;18.32;46.57;97708.84;5093198;28;19943;-42
2023/03/11 09:03:03;;;;;;;;;;;;;;;18.14;46.24;97702.50;5093783;28;19924;-40
2023/03/11 09:05:29;;;;;;;;;;;;;;;18.29;46.59;97706.75;5093234;28;19943;-42
2023/03/11 09:07:54;;;;;;;;;;;;;;;18.02;46.88;97698.75;5093359;28;19912;-42
2023/03/11 09:10:19;;;;;;;;;;;;;;;18.09;46.59;97691.84;5093590;28;19912;-41
2023/03/11 09:12:44;;;;;;;;;;;;;;;18.38;45.52;97690.66;5093035;28;19961;-42
2023/03/11 09:15:10;;;;;;;;;;;;;;;18.26;46.02;97688.53;5093106;28;20364;-42
2023/03/11 09:17:35;;;;;;;;;;;;;;;18.74;44.88;97679.06;5093268;28;19919;-42
2023/03/11 09:20:00;;;;;;;;;;;;;;;18.86;44.79;97675.81;5093090;28;19919;-43
2023/03/11 09:22:26;;;;;;;;;;;;;;;18.24;45.79;97685.34;5093223;28;19920;-42
2023/03/11 09:24:51;;;;;;;;;;;;;;;18.47;45.38;97678.06;5093272;28;19920;-43
2023/03/11 09:27:17;;;;;;;;;;;;;;;19.04;44.14;97669.44;5093137;28;20395;-41
2023/03/11 09:29:42;;;;;;;;;;;;;;;19.12;44.06;97663.28;5092959;28;20009;-41
2023/03/11 09:32:11;;;;;;;;;;;;;;;18.95;44.28;97657.81;5092801;28;20042;-42
2023/03/11 09:34:36;;;;;;;;;;;;;;;18.69;44.41;97649.53;5092607;28;19920;-41
2023/03/11 09:37:01;;;;;;;;;;;;;;;18.68;44.16;97647.97;5092663;28;19961;-41
2023/03/11 09:39:26;;;;;;;;;;;;;;;18.18;44.74;97648.84;5092544;28;19912;-42
2023/03/11 09:41:53;;;;;;;;;;;;;;;18.63;43.64;97643.47;5092895;28;19912;-43
2023/03/11 09:44:19;;;;;;;;;;;;;;;18.19;44.85;97653.13;5092692;28;19939;-42
2023/03/11 09:46:54;;;;;;;;;;;;;;;18.09;45.74;97653.38;5092255;28;19912;-42
2023/03/11 09:49:29;;;;;;;;;;;;;;;18.48;44.88;97652.72;5092577;28;19995;-42
2023/03/11 09:52:07;;;;;;;;;;;;;;;18.60;44.54;97643.28;5091935;28;19916;-42
2023/03/11 09:54:36;;;;;;;;;;;;;;;19.06;43.93;97644.88;5092431;28;19917;-42
2023/03/11 09:57:02;;;;;;;;;;;;;;;19.18;43.76;97644.28;5092458;28;19912;-42
2023/03/11 09:59:31;;;;;;;;;;;;;;;19.46;43.14;97642.97;5092067;28;19912;-41
2023/03/11 10:01:57;;;;;;;;;;;;;;;19.72;41.19;97626.88;5092156;28;20053;-43
2023/03/11 10:04:25;;;;;;;;;;;;;;;19.64;41.68;97643.00;5092498;28;19912;-42
2023/03/11 10:06:51;;;;;;;;;;;;;;;19.52;40.93;97647.09;5091781;28;20394;-41
2023/03/11 10:09:35;;;;;;;;;;;;;;;19.26;40.62;97638.91;5091827;28;19919;-41
2023/03/11 10:12:03;;;;;;;;;;;;;;;19.27;40.41;97639.75;5091895;28;19936;-42
2023/03/11 10:14:29;;;;;;;;;;;;;;;19.73;40.20;97646.56;5091145;28;19934;-43
2023/03/11 10:16:58;;;;;;;;;;;;;;;19.81;39.87;97653.88;5091472;28;19912;-42
2023/03/11 10:19:26;;;;;;;;;;;;;;;19.53;39.37;97648.72;5092098;28;20000;-41
2023/03/11 10:21:58;;;;;;;;;;;;;;;19.33;39.78;97649.28;5089804;28;19916;-41
2023/03/11 10:24:32;;;;;;;;;;;;;;;19.32;39.82;97651.19;5092044;28;19924;-42
2023/03/11 10:27:00;;;;;;;;;;;;;;;19.07;39.53;97647.25;5090369;28;19912;-43
2023/03/11 10:29:39;;;;;;;;;;;;;;;19.03;39.69;97651.66;5091830;28;19912;-42
2023/03/11 10:32:16;;;;;;;;;;;;;;;19.42;39.63;97643.88;5091788;28;19912;-42
2023/03/11 10:34:57;;;;;;;;;;;;;;;19.50;39.17;97643.16;5091674;28;19969;-41
2023/03/11 10:37:25;;;;;;;;;;;;;;;19.90;39.10;97637.69;5091636;28;20019;-42
2023/03/11 10:39:50;;;;;;;;;;;;;;;20.01;38.63;97640.88;5091600;28;20352;-42
2023/03/11 10:42:19;;;;;;;;;;;;;;;19.64;38.94;97638.41;5091431;28;19977;-42
2023/03/11 10:44:44;;;;;;;;;;;;;;;19.67;39.13;97639.69;5091594;28;19959;-42
2023/03/11 10:47:30;;;;;;;;;;;;;;;19.97;38.17;97631.81;5091534;28;19912;-43
2023/03/11 10:49:55;;;;;;;;;;;;;;;20.25;37.99;97641.19;5090992;28;20004;-41
2023/03/11 10:52:20;;;;;;;;;;;;;;;20.36;37.19;97633.59;5091577;28;20046;-47
2023/03/11 10:54:47;;;;;;;;;;;;;;;19.94;37.56;97622.47;5091220;28;20368;-42
2023/03/11 10:57:21;;;;;;;;;;;;;;;20.53;36.79;97626.59;5091223;28;20040;-42
2023/03/11 10:59:49;;;;;;;;;;;;;;;20.61;36.24;97618.47;5091111;28;19962;-42
2023/03/11 11:02:53;;;;;;;;;;;;;;;21.20;35.15;97622.44;5091044;28;20303;-42
2023/03/11 11:05:21;;;;;;;;;;;;;;;20.79;35.82;97621.13;5067475;28;20034;-42
2023/03/11 11:08:06;;;;;;;;;;;;;;;20.44;35.89;97610.38;5068139;28;19913;-42
2023/03/11 11:10:33;;;;;;;;;;;;;;;21.15;34.93;97609.09;5082139;28;19966;-41
2023/03/11 11:13:17;;;;;;;;;;;;;;;21.25;34.72;97606.84;5090713;28;19950;-43
2023/03/11 11:15:54;;;;;;;;;;;;;;;21.25;34.94;97609.53;5090851;28;19920;-42
2023/03/11 11:18:25;;;;;;;;;;;;;;;20.93;35.01;97599.34;5090767;28;19974;-43
2023/03/11 11:21:04;;;;;;;;;;;;;;;21.53;33.84;97597.47;5091114;28;19916;-42
2023/03/11 11:23:31;;;;;;;;;;;;;;;21.72;34.04;97592.41;5088723;28;19928;-42
2023/03/11 11:25:58;;;;;;;;;;;;;;;21.15;34.84;97598.28;5089567;28;20015;-43
2023/03/11 11:28:23;;;;;;;;;;;;;;;20.58;35.06;97602.91;5090218;28;19919;-42
2023/03/11 11:31:11;;;;;;;;;;;;;;;20.55;34.77;97591.94;5089585;28;19916;-42
2023/03/11 11:33:48;;;;;;;;;;;;;;;20.94;34.67;97590.88;5089251;28;19996;-42
2023/03/11 11:36:15;;;;;;;;;;;;;;;21.28;33.44;97575.63;5090663;28;19919;-42
2023/03/11 11:38:40;;;;;;;;;;;;;;;20.74;33.35;97578.09;5090426;28;20340;-42
2023/03/11 11:41:08;;;;;;;;;;;;;;;20.88;32.98;97584.06;5090729;28;19919;-42
2023/03/11 11:43:45;;;;;;;;;;;;;;;20.49;33.76;97575.09;5090607;28;19919;-42
2023/03/11 11:46:31;;;;;;;;;;;;;;;20.35;33.92;97569.84;5090686;28;19912;-43
2023/03/11 11:49:08;;;;;;;;;;;;;;;20.28;34.02;97574.97;5069277;28;19912;-42
2023/03/11 11:51:39;;;;;;;;;;;;;;;20.50;33.71;97576.69;5090651;28;19969;-40
2023/03/11 11:54:14;;;;;;;;;;;;;;;19.99;33.52;97579.13;5090777;28;19922;-41
2023/03/11 11:56:40;;;;;;;;;;;;;;;19.89;31.40;97563.22;5090801;28;19916;-41
2023/03/11 11:59:20;;;;;;;;;;;;;;;19.94;31.37;97559.59;5090202;28;19911;-41
2023/03/11 12:01:45;;;;;;;;;;;;;;;20.37;30.45;97556.03;5090150;28;20291;-42
2023/03/11 12:04:17;;;;;;;;;;;;;;;20.63;30.43;97558.72;5090175;28;19912;-42
2023/03/11 12:06:51;;;;;;;;;;;;;;;20.99;30.39;97546.66;5090283;28;20003;-43
2023/03/11 12:09:16;;;;;;;;;;;;;;;20.41;30.50;97540.78;5089922;28;19912;-41
2023/03/11 12:11:55;;;;;;;;;;;;;;;20.76;30.91;97546.91;5090383;28;20398;-42
2023/03/11 12:14:28;;;;;;;;;;;;;;;20.85;30.80;97544.97;5090245;28;20253;-42
2023/03/11 12:17:00;;;;;;;;;;;;;;;21.03;30.39;97539.50;5094176;28;19912;-41
2023/03/11 12:19:28;;;;;;;;;;;;;;;21.21;30.08;97535.59;5093962;28;19916;-42
2023/03/11 12:22:20;;;;;;;;;;;;;;;21.50;30.35;97527.81;5093813;28;19916;-42
2023/03/11 12:24:48;;;;;;;;;;;;;;;21.37;30.32;97532.31;5094114;28;20436;-42
2023/03/11 12:27:19;;;;;;;;;;;;;;;21.22;30.60;97534.44;5093835;28;20280;-43
2023/03/11 12:29:47;;;;;;;;;;;;;;;21.23;29.84;97543.38;5094093;28;19912;-41
2023/03/11 12:32:23;;;;;;;;;;;;;;;21.36;29.44;97531.53;5093908;28;19913;-41
2023/03/11 12:34:49;;;;;;;;;;;;;;;21.44;29.72;97527.22;5093728;28;19920;-42
2023/03/11 12:37:17;;;;;;;;;;;;;;;21.19;30.02;97528.91;5093766;28;19918;-42
2023/03/11 12:39:42;;;;;;;;;;;;;;;20.84;30.41;97527.16;5093504;28;19927;-42
2023/03/11 12:42:08;;;;;;;;;;;;;;;20.48;30.82;97538.38;5093684;28;19994;-41
2023/03/11 12:44:33;;;;;;;;;;;;;;;20.84;30.38;97531.78;5093771;28;20287;-41
2023/03/11 12:46:58;;;;;;;;;;;;;;;20.84;31.07;97526.38;5093729;28;19911;-42